sensor_id;sensor_type;location;lat;lon;timestamp;temperature;humidity
49503;DHT22;35409;48.776;9.204;2023-10-19T00:02:05;10.80;99.90
49503;DHT22;35409;48.776;9.204;2023-10-19T00:04:32;10.80;99.90
49503;DHT22;35409;48.776;9.204;2023-10-19T00:07:00;10.80;99.90
49503;DHT22;35409;48.776;9.204;2023-10-19T00:09:26;10.90;99.90
49503;DHT22;35409;48.776;9.204;2023-10-19T00:11:57;10.90;99.90
49503;DHT22;35409;48.776;9.204;2023-10-19T00:14:23;11.00;99.90
49503;DHT22;35409;48.776;9.204;2023-10-19T00:16:51;11.00;99.90
49503;DHT22;35409;48.776;9.204;2023-10-19T00:19:26;11.00;99.90
49503;DHT22;35409;48.776;9.204;2023-10-19T00:21:53;11.00;99.90
49503;DHT22;35409;48.776;9.204;2023-10-19T00:24:27;11.10;99.90
49503;DHT22;35409;48.776;9.204;2023-10-19T00:26:56;11.20;99.90
49503;DHT22;35409;48.776;9.204;2023-10-19T00:29:22;11.30;99.90
49503;DHT22;35409;48.776;9.204;2023-10-19T00:32:01;11.40;99.90
49503;DHT22;35409;48.776;9.204;2023-10-19T00:34:28;11.40;99.90
49503;DHT22;35409;48.776;9.204;2023-10-19T00:36:54;11.50;99.90
49503;DHT22;35409;48.776;9.204;2023-10-19T00:39:22;11.60;99.90
49503;DHT22;35409;48.776;9.204;2023-10-19T00:41:49;11.60;99.90
49503;DHT22;35409;48.776;9.204;2023-10-19T00:44:16;11.70;99.90
49503;DHT22;35409;48.776;9.204;2023-10-19T00:46:48;11.70;99.90
49503;DHT22;35409;48.776;9.204;2023-10-19T00:49:29;11.70;99.90
49503;DHT22;35409;48.776;9.204;2023-10-19T00:51:57;11.70;99.90
49503;DHT22;35409;48.776;9.204;2023-10-19T00:54:38;11.80;99.90
49503;DHT22;35409;48.776;9.204;2023-10-19T00:57:19;11.80;99.90
49503;DHT22;35409;48.776;9.204;2023-10-19T00:59:46;11.80;99.90
49503;DHT22;35409;48.776;9.204;2023-10-19T01:02:20;11.80;99.90
49503;DHT22;35409;48.776;9.204;2023-10-19T01:04:53;11.80;99.90
49503;DHT22;35409;48.776;9.204;2023-10-19T01:07:27;11.90;99.90
49503;DHT22;35409;48.776;9.204;2023-10-19T01:10:00;11.90;99.90
49503;DHT22;35409;48.776;9.204;2023-10-19T01:12:29;11.90;99.90
49503;DHT22;35409;48.776;9.204;2023-10-19T01:15:11;12.00;99.90
49503;DHT22;35409;48.776;9.204;2023-10-19T01:17:48;12.10;99.90
49503;DHT22;35409;48.776;9.204;2023-10-19T01:20:20;12.10;99.90
49503;DHT22;35409;48.776;9.204;2023-10-19T01:23:01;12.20;99.90
49503;DHT22;35409;48.776;9.204;2023-10-19T01:25:57;12.20;99.90
49503;DHT22;35409;48.776;9.204;2023-10-19T01:28:30;12.20;99.90
49503;DHT22;35409;48.776;9.204;2023-10-19T01:31:20;12.30;99.90
49503;DHT22;35409;48.776;9.204;2023-10-19T01:33:56;12.30;99.90
49503;DHT22;35409;48.776;9.204;2023-10-19T01:36:23;12.30;99.90
49503;DHT22;35409;48.776;9.204;2023-10-19T01:38:53;12.40;99.90
49503;DHT22;35409;48.776;9.204;2023-10-19T01:41:24;12.40;99.90
49503;DHT22;35409;48.776;9.204;2023-10-19T01:43:52;12.50;99.90
49503;DHT22;35409;48.776;9.204;2023-10-19T01:46:27;12.50;99.90
49503;DHT22;35409;48.776;9.204;2023-10-19T01:48:57;12.60;99.90
49503;DHT22;35409;48.776;9.204;2023-10-19T01:51:24;12.50;99.90
49503;DHT22;35409;48.776;9.204;2023-10-19T01:53:54;12.50;99.90
49503;DHT22;35409;48.776;9.204;2023-10-19T01:56:21;12.20;99.90
49503;DHT22;35409;48.776;9.204;2023-10-19T01:58:47;12.00;99.90
49503;DHT22;35409;48.776;9.204;2023-10-19T02:01:14;11.80;99.90
49503;DHT22;35409;48.776;9.204;2023-10-19T02:03:47;11.60;99.90
49503;DHT22;35409;48.776;9.204;2023-10-19T02:06:14;11.50;99.90
49503;DHT22;35409;48.776;9.204;2023-10-19T02:08:55;11.40;99.90
49503;DHT22;35409;48.776;9.204;2023-10-19T02:11:26;11.30;99.90
49503;DHT22;35409;48.776;9.204;2023-10-19T02:13:55;11.30;99.90
49503;DHT22;35409;48.776;9.204;2023-10-19T02:16:22;11.20;99.90
49503;DHT22;35409;48.776;9.204;2023-10-19T02:18:48;11.20;99.90
49503;DHT22;35409;48.776;9.204;2023-10-19T02:21:14;11.20;99.90
49503;DHT22;35409;48.776;9.204;2023-10-19T02:23:41;11.20;99.90
49503;DHT22;35409;48.776;9.204;2023-10-19T02:26:10;11.20;99.90
49503;DHT22;35409;48.776;9.204;2023-10-19T02:28:39;11.10;99.90
49503;DHT22;35409;48.776;9.204;2023-10-19T02:31:05;11.10;99.90
49503;DHT22;35409;48.776;9.204;2023-10-19T02:33:41;11.10;99.90
49503;DHT22;35409;48.776;9.204;2023-10-19T02:36:07;11.10;99.90
49503;DHT22;35409;48.776;9.204;2023-10-19T02:38:39;11.10;99.90
49503;DHT22;35409;48.776;9.204;2023-10-19T02:41:04;11.10;99.90
49503;DHT22;35409;48.776;9.204;2023-10-19T02:43:30;11.00;99.90
49503;DHT22;35409;48.776;9.204;2023-10-19T02:45:59;11.00;99.90
49503;DHT22;35409;48.776;9.204;2023-10-19T02:48:25;11.00;99.90
49503;DHT22;35409;48.776;9.204;2023-10-19T02:50:50;11.00;99.90
49503;DHT22;35409;48.776;9.204;2023-10-19T02:53:16;10.90;99.90
49503;DHT22;35409;48.776;9.204;2023-10-19T02:55:44;10.90;99.90
49503;DHT22;35409;48.776;9.204;2023-10-19T02:58:10;10.90;99.90
49503;DHT22;35409;48.776;9.204;2023-10-19T03:00:39;10.80;99.90
49503;DHT22;35409;48.776;9.204;2023-10-19T03:03:06;10.80;99.90
49503;DHT22;35409;48.776;9.204;2023-10-19T03:05:32;10.70;99.90
49503;DHT22;35409;48.776;9.204;2023-10-19T03:08:01;10.60;99.90
49503;DHT22;35409;48.776;9.204;2023-10-19T03:10:31;10.60;99.90
49503;DHT22;35409;48.776;9.204;2023-10-19T03:13:08;10.50;99.90
49503;DHT22;35409;48.776;9.204;2023-10-19T03:15:34;10.50;99.90
49503;DHT22;35409;48.776;9.204;2023-10-19T03:18:03;10.40;99.90
49503;DHT22;35409;48.776;9.204;2023-10-19T03:20:30;10.40;99.90
49503;DHT22;35409;48.776;9.204;2023-10-19T03:22:59;10.40;99.90
49503;DHT22;35409;48.776;9.204;2023-10-19T03:25:27;10.30;99.90
49503;DHT22;35409;48.776;9.204;2023-10-19T03:28:12;10.20;99.90
49503;DHT22;35409;48.776;9.204;2023-10-19T03:30:38;10.20;99.90
49503;DHT22;35409;48.776;9.204;2023-10-19T03:33:06;10.20;99.90
49503;DHT22;35409;48.776;9.204;2023-10-19T03:35:37;10.20;99.90
49503;DHT22;35409;48.776;9.204;2023-10-19T03:38:07;10.10;99.90
49503;DHT22;35409;48.776;9.204;2023-10-19T03:40:43;10.10;99.90
49503;DHT22;35409;48.776;9.204;2023-10-19T03:43:17;10.10;99.90
49503;DHT22;35409;48.776;9.204;2023-10-19T03:45:44;10.20;99.90
49503;DHT22;35409;48.776;9.204;2023-10-19T03:48:20;10.20;99.90
49503;DHT22;35409;48.776;9.204;2023-10-19T03:51:04;10.20;99.90
49503;DHT22;35409;48.776;9.204;2023-10-19T03:53:30;10.20;99.90
49503;DHT22;35409;48.776;9.204;2023-10-19T03:55:58;10.20;99.90
49503;DHT22;35409;48.776;9.204;2023-10-19T03:58:24;10.20;99.90
49503;DHT22;35409;48.776;9.204;2023-10-19T04:00:49;10.30;99.90
49503;DHT22;35409;48.776;9.204;2023-10-19T04:03:16;10.30;99.90
49503;DHT22;35409;48.776;9.204;2023-10-19T04:05:43;10.30;99.90
49503;DHT22;35409;48.776;9.204;2023-10-19T04:08:12;10.30;99.90
49503;DHT22;35409;48.776;9.204;2023-10-19T04:10:39;10.30;99.90
49503;DHT22;35409;48.776;9.204;2023-10-19T04:13:10;10.30;99.90
49503;DHT22;35409;48.776;9.204;2023-10-19T04:15:36;10.50;99.90
49503;DHT22;35409;48.776;9.204;2023-10-19T04:18:05;10.50;99.90
49503;DHT22;35409;48.776;9.204;2023-10-19T04:20:34;10.60;99.90
49503;DHT22;35409;48.776;9.204;2023-10-19T04:23:18;10.60;99.90
49503;DHT22;35409;48.776;9.204;2023-10-19T04:25:46;10.70;99.90
49503;DHT22;35409;48.776;9.204;2023-10-19T04:28:12;10.70;99.90
49503;DHT22;35409;48.776;9.204;2023-10-19T04:30:43;10.70;99.90
49503;DHT22;35409;48.776;9.204;2023-10-19T04:33:08;10.60;99.90
49503;DHT22;35409;48.776;9.204;2023-10-19T04:35:38;10.60;99.90
49503;DHT22;35409;48.776;9.204;2023-10-19T04:38:06;10.60;99.90
49503;DHT22;35409;48.776;9.204;2023-10-19T04:40:32;10.60;99.90
49503;DHT22;35409;48.776;9.204;2023-10-19T04:42:57;10.50;99.90
49503;DHT22;35409;48.776;9.204;2023-10-19T04:45:23;10.50;99.90
49503;DHT22;35409;48.776;9.204;2023-10-19T04:47:53;10.50;99.90
49503;DHT22;35409;48.776;9.204;2023-10-19T04:50:20;10.50;99.90
49503;DHT22;35409;48.776;9.204;2023-10-19T04:52:46;10.40;99.90
49503;DHT22;35409;48.776;9.204;2023-10-19T04:55:13;10.40;99.90
49503;DHT22;35409;48.776;9.204;2023-10-19T04:57:38;10.40;99.90
49503;DHT22;35409;48.776;9.204;2023-10-19T05:00:04;10.30;99.90
49503;DHT22;35409;48.776;9.204;2023-10-19T05:02:30;10.40;99.90
49503;DHT22;35409;48.776;9.204;2023-10-19T05:04:56;10.30;99.90
49503;DHT22;35409;48.776;9.204;2023-10-19T05:07:21;10.30;99.90
49503;DHT22;35409;48.776;9.204;2023-10-19T05:09:47;10.30;99.90
49503;DHT22;35409;48.776;9.204;2023-10-19T05:12:16;10.20;99.90
49503;DHT22;35409;48.776;9.204;2023-10-19T05:14:42;10.20;99.90
49503;DHT22;35409;48.776;9.204;2023-10-19T05:17:08;10.20;99.90
49503;DHT22;35409;48.776;9.204;2023-10-19T05:19:35;10.20;99.90
49503;DHT22;35409;48.776;9.204;2023-10-19T05:22:04;10.30;99.90
49503;DHT22;35409;48.776;9.204;2023-10-19T05:24:29;10.30;99.90
49503;DHT22;35409;48.776;9.204;2023-10-19T05:26:55;10.30;99.90
49503;DHT22;35409;48.776;9.204;2023-10-19T05:29:22;10.20;99.90
49503;DHT22;35409;48.776;9.204;2023-10-19T05:31:50;10.20;99.90
49503;DHT22;35409;48.776;9.204;2023-10-19T05:34:19;10.20;99.90
49503;DHT22;35409;48.776;9.204;2023-10-19T05:36:45;10.20;99.90
49503;DHT22;35409;48.776;9.204;2023-10-19T05:39:14;10.10;99.90
49503;DHT22;35409;48.776;9.204;2023-10-19T05:41:40;10.10;99.90
49503;DHT22;35409;48.776;9.204;2023-10-19T05:44:06;10.10;99.90
49503;DHT22;35409;48.776;9.204;2023-10-19T05:46:31;10.10;99.90
49503;DHT22;35409;48.776;9.204;2023-10-19T05:48:57;10.10;99.90
49503;DHT22;35409;48.776;9.204;2023-10-19T05:51:23;10.20;99.90
49503;DHT22;35409;48.776;9.204;2023-10-19T05:53:50;10.20;99.90
49503;DHT22;35409;48.776;9.204;2023-10-19T05:56:16;10.20;99.90
49503;DHT22;35409;48.776;9.204;2023-10-19T05:58:43;10.20;99.90
49503;DHT22;35409;48.776;9.204;2023-10-19T06:01:08;10.20;99.90
49503;DHT22;35409;48.776;9.204;2023-10-19T06:03:34;10.20;99.90
49503;DHT22;35409;48.776;9.204;2023-10-19T06:06:00;10.20;99.90
49503;DHT22;35409;48.776;9.204;2023-10-19T06:08:25;10.20;99.90
49503;DHT22;35409;48.776;9.204;2023-10-19T06:10:52;10.30;99.90
49503;DHT22;35409;48.776;9.204;2023-10-19T06:13:19;10.30;99.90
49503;DHT22;35409;48.776;9.204;2023-10-19T06:15:44;10.40;99.90
49503;DHT22;35409;48.776;9.204;2023-10-19T06:18:10;10.30;99.90
49503;DHT22;35409;48.776;9.204;2023-10-19T06:20:36;10.40;99.90
49503;DHT22;35409;48.776;9.204;2023-10-19T06:23:02;10.40;99.90
49503;DHT22;35409;48.776;9.204;2023-10-19T06:25:32;10.40;99.90
49503;DHT22;35409;48.776;9.204;2023-10-19T06:27:58;10.50;99.90
49503;DHT22;35409;48.776;9.204;2023-10-19T06:30:25;10.50;99.90
49503;DHT22;35409;48.776;9.204;2023-10-19T06:32:55;10.50;99.90
49503;DHT22;35409;48.776;9.204;2023-10-19T06:35:21;10.60;99.90
49503;DHT22;35409;48.776;9.204;2023-10-19T06:37:48;10.60;99.90
49503;DHT22;35409;48.776;9.204;2023-10-19T06:40:15;10.70;99.90
49503;DHT22;35409;48.776;9.204;2023-10-19T06:42:45;10.70;99.90
49503;DHT22;35409;48.776;9.204;2023-10-19T06:45:12;10.70;99.90
49503;DHT22;35409;48.776;9.204;2023-10-19T06:47:42;10.80;99.90
49503;DHT22;35409;48.776;9.204;2023-10-19T06:50:11;10.80;99.90
49503;DHT22;35409;48.776;9.204;2023-10-19T06:52:39;10.80;99.90
49503;DHT22;35409;48.776;9.204;2023-10-19T06:55:06;10.90;99.90
49503;DHT22;35409;48.776;9.204;2023-10-19T06:57:43;10.90;99.90
49503;DHT22;35409;48.776;9.204;2023-10-19T07:00:13;11.00;99.90
49503;DHT22;35409;48.776;9.204;2023-10-19T07:02:40;11.10;99.90
49503;DHT22;35409;48.776;9.204;2023-10-19T07:05:07;11.20;99.90
49503;DHT22;35409;48.776;9.204;2023-10-19T07:07:36;11.20;99.90
49503;DHT22;35409;48.776;9.204;2023-10-19T07:10:02;11.30;99.90
49503;DHT22;35409;48.776;9.204;2023-10-19T07:12:29;11.40;99.90
49503;DHT22;35409;48.776;9.204;2023-10-19T07:14:54;11.50;99.90
49503;DHT22;35409;48.776;9.204;2023-10-19T07:17:20;11.50;99.90
49503;DHT22;35409;48.776;9.204;2023-10-19T07:19:45;11.60;99.90
49503;DHT22;35409;48.776;9.204;2023-10-19T07:22:14;11.50;99.90
49503;DHT22;35409;48.776;9.204;2023-10-19T07:24:40;11.60;99.90
49503;DHT22;35409;48.776;9.204;2023-10-19T07:27:07;11.60;99.90
49503;DHT22;35409;48.776;9.204;2023-10-19T07:29:33;11.70;99.90
49503;DHT22;35409;48.776;9.204;2023-10-19T07:32:04;11.80;99.90
49503;DHT22;35409;48.776;9.204;2023-10-19T07:34:33;11.80;99.90
49503;DHT22;35409;48.776;9.204;2023-10-19T07:37:00;11.80;99.90
49503;DHT22;35409;48.776;9.204;2023-10-19T07:39:26;11.90;99.90
49503;DHT22;35409;48.776;9.204;2023-10-19T07:41:55;12.00;99.90
49503;DHT22;35409;48.776;9.204;2023-10-19T07:44:22;12.10;99.90
49503;DHT22;35409;48.776;9.204;2023-10-19T07:46:47;12.20;99.90
49503;DHT22;35409;48.776;9.204;2023-10-19T07:49:14;12.30;99.90
49503;DHT22;35409;48.776;9.204;2023-10-19T07:51:49;12.40;99.90
49503;DHT22;35409;48.776;9.204;2023-10-19T07:54:15;12.50;99.90
49503;DHT22;35409;48.776;9.204;2023-10-19T07:56:41;12.60;99.90
49503;DHT22;35409;48.776;9.204;2023-10-19T07:59:07;12.60;99.90
49503;DHT22;35409;48.776;9.204;2023-10-19T08:01:33;12.70;99.90
49503;DHT22;35409;48.776;9.204;2023-10-19T08:03:58;12.80;99.90
49503;DHT22;35409;48.776;9.204;2023-10-19T08:06:24;12.80;99.90
49503;DHT22;35409;48.776;9.204;2023-10-19T08:08:51;12.90;99.90
49503;DHT22;35409;48.776;9.204;2023-10-19T08:11:18;13.00;99.90
49503;DHT22;35409;48.776;9.204;2023-10-19T08:13:44;13.00;99.90
49503;DHT22;35409;48.776;9.204;2023-10-19T08:16:09;13.00;99.90
49503;DHT22;35409;48.776;9.204;2023-10-19T08:18:37;13.10;99.90
49503;DHT22;35409;48.776;9.204;2023-10-19T08:21:03;13.10;99.90
49503;DHT22;35409;48.776;9.204;2023-10-19T08:23:28;13.20;99.90
49503;DHT22;35409;48.776;9.204;2023-10-19T08:25:57;13.20;99.90
49503;DHT22;35409;48.776;9.204;2023-10-19T08:28:22;13.20;99.90
49503;DHT22;35409;48.776;9.204;2023-10-19T08:30:48;13.30;99.90
49503;DHT22;35409;48.776;9.204;2023-10-19T08:33:26;13.40;99.90
49503;DHT22;35409;48.776;9.204;2023-10-19T08:38:22;13.80;99.90
49503;DHT22;35409;48.776;9.204;2023-10-19T08:40:49;13.80;99.90
49503;DHT22;35409;48.776;9.204;2023-10-19T08:43:17;13.80;99.90
49503;DHT22;35409;48.776;9.204;2023-10-19T08:48:10;14.30;99.90
49503;DHT22;35409;48.776;9.204;2023-10-19T08:50:37;14.30;99.90
49503;DHT22;35409;48.776;9.204;2023-10-19T08:53:05;14.40;99.90
49503;DHT22;35409;48.776;9.204;2023-10-19T08:55:33;14.50;99.90
49503;DHT22;35409;48.776;9.204;2023-10-19T08:58:03;14.40;99.90
49503;DHT22;35409;48.776;9.204;2023-10-19T09:00:50;14.50;99.90
49503;DHT22;35409;48.776;9.204;2023-10-19T09:03:19;14.50;99.90
49503;DHT22;35409;48.776;9.204;2023-10-19T09:05:47;14.50;99.90
49503;DHT22;35409;48.776;9.204;2023-10-19T09:08:16;14.60;99.90
49503;DHT22;35409;48.776;9.204;2023-10-19T09:10:44;14.70;99.90
49503;DHT22;35409;48.776;9.204;2023-10-19T09:13:11;14.80;99.90
49503;DHT22;35409;48.776;9.204;2023-10-19T09:18:13;15.50;99.90
49503;DHT22;35409;48.776;9.204;2023-10-19T09:20:46;15.50;99.90
49503;DHT22;35409;48.776;9.204;2023-10-19T09:23:23;15.70;99.90
49503;DHT22;35409;48.776;9.204;2023-10-19T09:28:15;16.10;99.90
49503;DHT22;35409;48.776;9.204;2023-10-19T09:30:43;16.10;99.90
49503;DHT22;35409;48.776;9.204;2023-10-19T09:33:09;16.30;99.90
49503;DHT22;35409;48.776;9.204;2023-10-19T09:35:35;16.40;99.90
49503;DHT22;35409;48.776;9.204;2023-10-19T09:38:03;16.50;99.90
49503;DHT22;35409;48.776;9.204;2023-10-19T09:40:32;16.60;99.90
49503;DHT22;35409;48.776;9.204;2023-10-19T09:42:58;16.70;99.90
49503;DHT22;35409;48.776;9.204;2023-10-19T09:45:30;16.70;99.90
49503;DHT22;35409;48.776;9.204;2023-10-19T09:50:26;16.90;99.90
49503;DHT22;35409;48.776;9.204;2023-10-19T09:52:53;16.90;99.90
49503;DHT22;35409;48.776;9.204;2023-10-19T09:55:26;16.90;99.90
49503;DHT22;35409;48.776;9.204;2023-10-19T09:58:04;17.00;99.90
49503;DHT22;35409;48.776;9.204;2023-10-19T10:00:31;17.10;99.90
49503;DHT22;35409;48.776;9.204;2023-10-19T10:02:57;17.10;99.90
49503;DHT22;35409;48.776;9.204;2023-10-19T13:08:13;14.80;99.90
49503;DHT22;35409;48.776;9.204;2023-10-19T13:10:40;14.80;99.90
49503;DHT22;35409;48.776;9.204;2023-10-19T13:13:12;14.80;99.90
49503;DHT22;35409;48.776;9.204;2023-10-19T13:15:39;14.90;99.90
49503;DHT22;35409;48.776;9.204;2023-10-19T13:18:08;14.90;99.90
49503;DHT22;35409;48.776;9.204;2023-10-19T13:20:36;14.90;99.90
49503;DHT22;35409;48.776;9.204;2023-10-19T13:23:03;15.00;99.90
49503;DHT22;35409;48.776;9.204;2023-10-19T13:25:30;15.00;99.90
49503;DHT22;35409;48.776;9.204;2023-10-19T13:28:09;15.00;99.90
49503;DHT22;35409;48.776;9.204;2023-10-19T13:30:42;15.00;99.90
49503;DHT22;35409;48.776;9.204;2023-10-19T13:33:09;15.10;99.90
49503;DHT22;35409;48.776;9.204;2023-10-19T13:35:37;15.10;99.90
49503;DHT22;35409;48.776;9.204;2023-10-19T13:38:04;15.10;99.90
49503;DHT22;35409;48.776;9.204;2023-10-19T13:40:30;15.10;99.90
49503;DHT22;35409;48.776;9.204;2023-10-19T13:42:59;15.10;99.90
49503;DHT22;35409;48.776;9.204;2023-10-19T13:45:26;15.10;99.90
49503;DHT22;35409;48.776;9.204;2023-10-19T13:47:51;15.20;99.90
49503;DHT22;35409;48.776;9.204;2023-10-19T13:50:23;15.20;99.90
49503;DHT22;35409;48.776;9.204;2023-10-19T13:52:53;15.20;99.90
49503;DHT22;35409;48.776;9.204;2023-10-19T13:55:19;15.20;99.90
49503;DHT22;35409;48.776;9.204;2023-10-19T13:57:47;15.20;99.90
49503;DHT22;35409;48.776;9.204;2023-10-19T14:00:17;15.20;99.90
49503;DHT22;35409;48.776;9.204;2023-10-19T14:02:53;15.10;99.90
49503;DHT22;35409;48.776;9.204;2023-10-19T14:05:19;15.10;99.90
49503;DHT22;35409;48.776;9.204;2023-10-19T14:07:48;15.10;99.90
49503;DHT22;35409;48.776;9.204;2023-10-19T14:10:14;15.20;99.90
49503;DHT22;35409;48.776;9.204;2023-10-19T14:12:40;15.20;99.90
49503;DHT22;35409;48.776;9.204;2023-10-19T14:15:14;15.20;99.90
49503;DHT22;35409;48.776;9.204;2023-10-19T14:17:44;15.10;99.90
49503;DHT22;35409;48.776;9.204;2023-10-19T14:20:11;15.10;99.90
49503;DHT22;35409;48.776;9.204;2023-10-19T14:22:45;15.00;99.90
49503;DHT22;35409;48.776;9.204;2023-10-19T14:25:12;15.00;99.90
49503;DHT22;35409;48.776;9.204;2023-10-19T14:27:49;15.00;99.90
49503;DHT22;35409;48.776;9.204;2023-10-19T14:30:17;14.90;99.90
49503;DHT22;35409;48.776;9.204;2023-10-19T14:32:44;14.90;99.90
49503;DHT22;35409;48.776;9.204;2023-10-19T14:35:11;14.90;99.90
49503;DHT22;35409;48.776;9.204;2023-10-19T14:37:41;14.90;99.90
49503;DHT22;35409;48.776;9.204;2023-10-19T14:40:09;14.90;99.90
49503;DHT22;35409;48.776;9.204;2023-10-19T14:42:38;14.80;99.90
49503;DHT22;35409;48.776;9.204;2023-10-19T14:45:25;14.80;99.90
49503;DHT22;35409;48.776;9.204;2023-10-19T14:47:52;14.80;99.90
49503;DHT22;35409;48.776;9.204;2023-10-19T14:50:20;14.80;99.90
49503;DHT22;35409;48.776;9.204;2023-10-19T14:52:49;14.80;99.90
49503;DHT22;35409;48.776;9.204;2023-10-19T14:55:15;14.80;99.90
49503;DHT22;35409;48.776;9.204;2023-10-19T14:57:42;14.70;99.90
49503;DHT22;35409;48.776;9.204;2023-10-19T15:00:09;14.90;99.90
49503;DHT22;35409;48.776;9.204;2023-10-19T15:02:48;14.90;99.90
49503;DHT22;35409;48.776;9.204;2023-10-19T15:05:14;14.80;99.90
49503;DHT22;35409;48.776;9.204;2023-10-19T15:07:44;14.80;99.90
49503;DHT22;35409;48.776;9.204;2023-10-19T15:10:11;14.80;99.90
49503;DHT22;35409;48.776;9.204;2023-10-19T15:12:40;14.80;99.90
49503;DHT22;35409;48.776;9.204;2023-10-19T15:15:08;14.70;99.90
49503;DHT22;35409;48.776;9.204;2023-10-19T15:17:37;14.80;99.90
49503;DHT22;35409;48.776;9.204;2023-10-19T15:20:04;14.80;99.90
49503;DHT22;35409;48.776;9.204;2023-10-19T15:22:30;14.80;99.90
49503;DHT22;35409;48.776;9.204;2023-10-19T15:24:58;14.80;99.90
49503;DHT22;35409;48.776;9.204;2023-10-19T15:27:23;14.90;99.90
49503;DHT22;35409;48.776;9.204;2023-10-19T15:29:50;14.90;99.90
49503;DHT22;35409;48.776;9.204;2023-10-19T15:32:15;14.90;99.90
49503;DHT22;35409;48.776;9.204;2023-10-19T15:34:42;14.90;99.90
49503;DHT22;35409;48.776;9.204;2023-10-19T15:37:08;14.90;99.90
49503;DHT22;35409;48.776;9.204;2023-10-19T15:39:34;14.90;99.90
49503;DHT22;35409;48.776;9.204;2023-10-19T15:42:00;14.90;99.90
49503;DHT22;35409;48.776;9.204;2023-10-19T15:44:26;14.90;99.90
49503;DHT22;35409;48.776;9.204;2023-10-19T15:46:51;14.90;99.90
49503;DHT22;35409;48.776;9.204;2023-10-19T15:49:18;14.80;99.90
49503;DHT22;35409;48.776;9.204;2023-10-19T15:51:45;14.80;99.90
49503;DHT22;35409;48.776;9.204;2023-10-19T15:54:11;14.80;99.90
49503;DHT22;35409;48.776;9.204;2023-10-19T15:56:36;14.80;99.90
49503;DHT22;35409;48.776;9.204;2023-10-19T15:59:02;14.80;99.90
49503;DHT22;35409;48.776;9.204;2023-10-19T16:01:28;14.80;99.90
49503;DHT22;35409;48.776;9.204;2023-10-19T16:03:55;14.80;99.90
49503;DHT22;35409;48.776;9.204;2023-10-19T16:06:21;14.80;99.90
49503;DHT22;35409;48.776;9.204;2023-10-19T16:08:47;14.80;99.90
49503;DHT22;35409;48.776;9.204;2023-10-19T16:11:12;14.80;99.90
49503;DHT22;35409;48.776;9.204;2023-10-19T16:13:38;14.80;99.90
49503;DHT22;35409;48.776;9.204;2023-10-19T16:16:05;14.90;99.90
49503;DHT22;35409;48.776;9.204;2023-10-19T16:18:32;14.90;99.90
49503;DHT22;35409;48.776;9.204;2023-10-19T16:20:58;14.90;99.90
49503;DHT22;35409;48.776;9.204;2023-10-19T16:23:24;14.80;99.90
49503;DHT22;35409;48.776;9.204;2023-10-19T16:25:57;14.90;99.90
49503;DHT22;35409;48.776;9.204;2023-10-19T16:28:24;14.90;99.90
49503;DHT22;35409;48.776;9.204;2023-10-19T16:30:49;14.90;99.90
49503;DHT22;35409;48.776;9.204;2023-10-19T16:33:16;14.80;99.90
49503;DHT22;35409;48.776;9.204;2023-10-19T16:35:42;14.80;99.90
49503;DHT22;35409;48.776;9.204;2023-10-19T16:38:08;14.80;99.90
49503;DHT22;35409;48.776;9.204;2023-10-19T16:40:40;14.90;99.90
49503;DHT22;35409;48.776;9.204;2023-10-19T16:43:09;14.80;99.90
49503;DHT22;35409;48.776;9.204;2023-10-19T16:45:34;14.80;99.90
49503;DHT22;35409;48.776;9.204;2023-10-19T16:48:05;14.80;99.90
49503;DHT22;35409;48.776;9.204;2023-10-19T16:50:31;14.70;99.90
49503;DHT22;35409;48.776;9.204;2023-10-19T16:52:57;14.70;99.90
49503;DHT22;35409;48.776;9.204;2023-10-19T16:55:26;14.70;99.90
49503;DHT22;35409;48.776;9.204;2023-10-19T16:57:52;14.70;99.90
49503;DHT22;35409;48.776;9.204;2023-10-19T17:00:21;14.60;99.90
49503;DHT22;35409;48.776;9.204;2023-10-19T17:02:47;14.60;99.90
49503;DHT22;35409;48.776;9.204;2023-10-19T17:05:13;14.60;99.90
49503;DHT22;35409;48.776;9.204;2023-10-19T17:07:39;14.60;99.90
49503;DHT22;35409;48.776;9.204;2023-10-19T17:10:05;14.50;99.90
49503;DHT22;35409;48.776;9.204;2023-10-19T17:12:31;14.50;99.90
49503;DHT22;35409;48.776;9.204;2023-10-19T17:15:00;14.50;99.90
49503;DHT22;35409;48.776;9.204;2023-10-19T17:17:26;14.50;99.90
49503;DHT22;35409;48.776;9.204;2023-10-19T17:19:52;14.50;99.90
49503;DHT22;35409;48.776;9.204;2023-10-19T17:22:18;14.50;99.90
49503;DHT22;35409;48.776;9.204;2023-10-19T17:24:44;14.60;99.90
49503;DHT22;35409;48.776;9.204;2023-10-19T17:27:10;14.60;99.90
49503;DHT22;35409;48.776;9.204;2023-10-19T17:29:37;14.60;99.90
49503;DHT22;35409;48.776;9.204;2023-10-19T17:32:03;14.50;99.90
49503;DHT22;35409;48.776;9.204;2023-10-19T17:34:28;14.60;99.90
49503;DHT22;35409;48.776;9.204;2023-10-19T17:36:54;14.50;99.90
49503;DHT22;35409;48.776;9.204;2023-10-19T17:39:20;14.60;99.90
49503;DHT22;35409;48.776;9.204;2023-10-19T17:41:48;14.50;99.90
49503;DHT22;35409;48.776;9.204;2023-10-19T17:44:15;14.50;99.90
49503;DHT22;35409;48.776;9.204;2023-10-19T17:46:40;14.50;99.90
49503;DHT22;35409;48.776;9.204;2023-10-19T17:49:07;14.50;99.90
49503;DHT22;35409;48.776;9.204;2023-10-19T17:51:32;14.50;99.90
49503;DHT22;35409;48.776;9.204;2023-10-19T17:53:58;14.40;99.90
49503;DHT22;35409;48.776;9.204;2023-10-19T17:56:24;14.40;99.90
49503;DHT22;35409;48.776;9.204;2023-10-19T17:58:50;14.40;99.90
49503;DHT22;35409;48.776;9.204;2023-10-19T18:01:17;14.40;99.90
49503;DHT22;35409;48.776;9.204;2023-10-19T18:03:42;14.30;99.90
49503;DHT22;35409;48.776;9.204;2023-10-19T18:06:08;14.30;99.90
49503;DHT22;35409;48.776;9.204;2023-10-19T18:08:34;14.30;99.90
49503;DHT22;35409;48.776;9.204;2023-10-19T18:11:01;14.30;99.90
49503;DHT22;35409;48.776;9.204;2023-10-19T18:13:27;14.30;99.90
49503;DHT22;35409;48.776;9.204;2023-10-19T18:15:52;14.20;99.90
49503;DHT22;35409;48.776;9.204;2023-10-19T18:18:18;14.20;99.90
49503;DHT22;35409;48.776;9.204;2023-10-19T18:20:44;14.20;99.90
49503;DHT22;35409;48.776;9.204;2023-10-19T18:23:11;14.20;99.90
49503;DHT22;35409;48.776;9.204;2023-10-19T18:25:40;14.20;99.90
49503;DHT22;35409;48.776;9.204;2023-10-19T18:28:08;14.20;99.90
49503;DHT22;35409;48.776;9.204;2023-10-19T18:42:48;14.10;99.90
49503;DHT22;35409;48.776;9.204;2023-10-19T18:45:14;14.20;99.90
49503;DHT22;35409;48.776;9.204;2023-10-19T18:47:40;14.20;99.90
49503;DHT22;35409;48.776;9.204;2023-10-19T18:50:06;14.10;99.90
49503;DHT22;35409;48.776;9.204;2023-10-19T18:52:34;14.10;99.90
49503;DHT22;35409;48.776;9.204;2023-10-19T18:55:00;14.10;99.90
49503;DHT22;35409;48.776;9.204;2023-10-19T18:57:26;14.10;99.90
49503;DHT22;35409;48.776;9.204;2023-10-19T18:59:52;14.10;99.90
49503;DHT22;35409;48.776;9.204;2023-10-19T19:02:18;14.10;99.90
49503;DHT22;35409;48.776;9.204;2023-10-19T19:04:44;14.10;99.90